Alum Bank, Pennsylvania
Current Conditions -  °F | °C
As of 3:23 AM on Thursday 27 Nov 2014 (Local Time) from KJST Reporting Station
Haze Haze  
Wind Chill: 29°   Ceiling: 200
Heat Index: 29°   Visibility: 4mi
Dew Point: 27°   Wind: 0mph
Humidity: 92%   Direction: NA
Pressure: 29.92"   Gusts: NA
Location:  40.18°N, 78.61°W
Report Text: KJST 270823Z AUTO 00000KT 4SM BR OVC002 M02/M03 A2992 RMK AO2 T10171028
Loading
Personal Weather Stations






























Interactive Weather Map New forecast layout! Learn more

10-Day Weather Forecast

Advertisements
Track Severe Weather on mobile